createdAt,value
2024-02-19T00:03:21.267Z,19.30
2024-02-19T00:08:25.084Z,20.10
2024-02-19T00:13:29.443Z,18.40
2024-02-19T00:18:33.276Z,20.70
2024-02-19T00:23:37.629Z,21.30
2024-02-19T00:28:41.555Z,20.70
2024-02-19T00:33:45.472Z,19.20
2024-02-19T00:38:49.493Z,21.20
2024-02-19T00:43:53.176Z,23.40
2024-02-19T00:48:57.185Z,21.60
2024-02-19T00:54:01.206Z,23.20
2024-02-19T00:59:04.974Z,22.50
2024-02-19T01:04:08.923Z,22.50
2024-02-19T01:09:12.976Z,20.80
2024-02-19T01:14:16.775Z,21.70
2024-02-19T01:19:20.667Z,23.10
2024-02-19T01:24:25.206Z,23.10
2024-02-19T01:29:29.025Z,21.60
2024-02-19T01:34:32.961Z,21.90
2024-02-19T01:39:36.877Z,22.00
2024-02-19T01:44:41.127Z,22.30
2024-02-19T01:49:45.463Z,20.90
2024-02-19T01:54:50.019Z,21.40
2024-02-19T01:59:55.228Z,21.30
2024-02-19T02:04:59.086Z,21.90
2024-02-19T02:10:06.086Z,22.30
2024-02-19T02:15:10.905Z,17.90
2024-02-19T02:20:15.125Z,22.30
2024-02-19T02:25:19.303Z,23.30
2024-02-19T02:30:23.399Z,22.60
2024-02-19T02:35:27.130Z,21.90
2024-02-19T02:40:31.701Z,22.30
2024-02-19T02:45:35.578Z,25.30
2024-02-19T02:50:39.308Z,25.90
2024-02-19T02:55:43.208Z,23.30
2024-02-19T03:00:47.179Z,22.10
2024-02-19T03:05:50.983Z,22.70
2024-02-19T03:10:54.974Z,21.20
2024-02-19T03:16:19.164Z,24.80
2024-02-19T03:21:23.044Z,23.10
2024-02-19T03:26:37.555Z,22.90
2024-02-19T03:31:44.973Z,22.60
2024-02-19T03:36:50.853Z,21.30
2024-02-19T03:41:54.912Z,20.50
2024-02-19T03:47:02.283Z,22.70
2024-02-19T03:52:07.668Z,21.90
2024-02-19T03:57:11.611Z,20.40
2024-02-19T04:02:15.275Z,23.30
2024-02-19T04:07:19.213Z,20.40
2024-02-19T04:12:23.131Z,22.10
2024-02-19T04:17:27.111Z,22.90
2024-02-19T04:22:30.955Z,20.80
2024-02-19T04:27:34.702Z,20.60
2024-02-19T04:32:38.637Z,23.60
2024-02-19T04:37:42.429Z,23.60
2024-02-19T04:42:46.125Z,21.60
2024-02-19T04:47:50.014Z,22.30
2024-02-19T04:52:53.839Z,22.80
2024-02-19T04:57:57.721Z,24.00
2024-02-19T05:03:01.506Z,23.90
2024-02-19T05:08:06.437Z,19.30
2024-02-19T05:13:10.392Z,22.30
2024-02-19T05:18:14.369Z,24.40
2024-02-19T05:23:18.398Z,22.70
2024-02-19T05:28:22.349Z,23.00
2024-02-19T05:33:26.096Z,23.90
2024-02-19T05:38:29.853Z,25.60
2024-02-19T05:43:33.673Z,23.40
2024-02-19T05:48:37.696Z,24.90
2024-02-19T05:53:41.688Z,21.90
2024-02-19T05:58:46.875Z,26.30
2024-02-19T06:03:50.592Z,25.50
2024-02-19T06:08:54.384Z,25.00
2024-02-19T06:13:58.322Z,25.90
2024-02-19T06:19:03.419Z,23.90
2024-02-19T06:24:07.932Z,23.50
2024-02-19T06:29:13.687Z,24.30
2024-02-19T06:34:17.626Z,24.50
2024-02-19T06:39:22.164Z,23.70
2024-02-19T06:44:26.286Z,26.10
2024-02-19T06:49:32.080Z,23.10
2024-02-19T06:54:37.258Z,24.60
2024-02-19T06:59:42.560Z,23.90
2024-02-19T07:04:47.179Z,25.40
2024-02-19T07:09:51.985Z,25.30
2024-02-19T07:14:56.240Z,22.00
2024-02-19T07:20:03.666Z,22.70
2024-02-19T07:25:16.593Z,24.50
2024-02-19T07:30:24.641Z,22.60
2024-02-19T07:35:40.376Z,23.30
2024-02-19T07:41:00.704Z,25.10
2024-02-19T07:46:05.778Z,27.00
2024-02-19T07:51:16.712Z,26.80
2024-02-19T07:56:21.185Z,27.20
2024-02-19T08:01:25.599Z,27.20
2024-02-19T08:06:30.136Z,29.30
2024-02-19T08:11:34.556Z,27.60
2024-02-19T08:16:40.343Z,27.30
2024-02-19T08:21:45.834Z,30.60
2024-02-19T08:26:50.444Z,30.80
2024-02-19T08:31:57.397Z,30.70
2024-02-19T08:37:01.681Z,29.50
2024-02-19T08:42:06.755Z,31.10
2024-02-19T08:47:11.773Z,29.50
2024-02-19T08:52:18.801Z,32.10
2024-02-19T08:57:26.625Z,33.00
2024-02-19T09:02:33.352Z,32.30
2024-02-19T09:07:37.774Z,33.60
2024-02-19T09:12:42.214Z,34.40
2024-02-19T09:17:46.520Z,36.00
2024-02-19T09:22:50.698Z,34.90
2024-02-19T09:27:54.991Z,32.90
2024-02-19T09:32:59.075Z,33.80
2024-02-19T09:38:03.405Z,35.40
2024-02-19T09:43:07.775Z,34.10
2024-02-19T09:48:13.638Z,38.30
2024-02-19T09:53:21.837Z,36.40
2024-02-19T09:58:27.768Z,35.70
2024-02-19T10:03:32.286Z,36.20
2024-02-19T10:08:36.855Z,34.70
2024-02-19T10:13:43.149Z,35.80
2024-02-19T10:18:47.430Z,34.00
2024-02-19T10:23:51.738Z,34.60
2024-02-19T10:28:58.274Z,32.30
2024-02-19T10:34:07.411Z,38.40
2024-02-19T10:39:11.461Z,36.90
2024-02-19T10:44:17.738Z,37.10
2024-02-19T10:49:22.223Z,36.50
2024-02-19T10:54:30.885Z,35.70
2024-02-19T10:59:39.598Z,35.60
2024-02-19T11:04:43.909Z,36.10
2024-02-19T11:09:58.603Z,33.20
2024-02-19T11:15:12.913Z,35.90
2024-02-19T11:20:26.142Z,33.20
2024-02-19T11:25:30.282Z,36.10
2024-02-19T11:30:34.406Z,35.90
2024-02-19T11:35:38.560Z,34.20
2024-02-19T11:40:43.053Z,33.40
2024-02-19T11:45:47.830Z,34.50
2024-02-19T11:50:58.699Z,30.10
2024-02-19T11:56:04.586Z,34.20
2024-02-19T12:01:10.043Z,36.10
2024-02-19T12:06:14.955Z,34.00
2024-02-19T12:11:19.157Z,33.50
2024-02-19T12:16:26.336Z,32.50
2024-02-19T12:21:30.966Z,31.20
2024-02-19T12:26:37.804Z,30.90
2024-02-19T12:31:44.760Z,32.20
2024-02-19T12:36:49.473Z,31.60
2024-02-19T12:41:53.981Z,30.00
2024-02-19T12:46:57.980Z,30.60
2024-02-19T12:52:03.800Z,28.00
2024-02-19T12:57:10.354Z,27.20
2024-02-19T13:02:16.988Z,27.80
2024-02-19T13:07:21.611Z,27.80
2024-02-19T13:12:26.374Z,28.80
2024-02-19T13:17:39.703Z,25.30
2024-02-19T13:22:54.488Z,24.60
2024-02-19T13:27:59.111Z,24.80
2024-02-19T13:33:07.204Z,24.90
2024-02-19T13:38:12.623Z,24.50
2024-02-19T13:43:17.181Z,21.50
2024-02-19T13:48:24.889Z,22.50
2024-02-19T13:53:30.383Z,23.10
2024-02-19T13:58:35.294Z,24.00
2024-02-19T14:03:39.603Z,21.20
2024-02-19T14:08:44.367Z,19.90
2024-02-19T14:13:58.026Z,17.20
2024-02-19T14:19:06.086Z,15.80
2024-02-19T14:24:10.034Z,15.50
2024-02-19T14:29:14.009Z,15.40
2024-02-19T14:34:18.095Z,14.70
2024-02-19T14:39:22.966Z,13.80
2024-02-19T14:44:26.980Z,13.70
2024-02-19T14:49:31.649Z,13.30
2024-02-19T14:54:38.772Z,12.40
2024-02-19T14:59:42.940Z,12.20
2024-02-19T15:04:47.155Z,12.30
2024-02-19T15:09:51.017Z,12.00
2024-02-19T15:14:55.273Z,12.50
2024-02-19T15:19:59.305Z,7.50
2024-02-19T15:25:05.654Z,5.80
2024-02-19T15:30:13.311Z,4.30
2024-02-19T15:35:18.558Z,4.20
2024-02-19T15:40:24.460Z,3.90
2024-02-19T15:45:29.247Z,1.80
2024-02-19T15:50:39.624Z,1.70
2024-02-19T15:55:44.951Z,1.30
2024-02-19T16:01:07.861Z,1.40
2024-02-19T16:06:13.722Z,1.60
2024-02-19T16:11:23.915Z,1.40
2024-02-19T16:16:31.172Z,1.50
2024-02-19T16:21:35.664Z,0.90
2024-02-19T16:26:39.839Z,1.00
2024-02-19T16:31:43.821Z,1.00
2024-02-19T16:36:47.841Z,1.50
2024-02-19T16:41:51.921Z,1.20
2024-02-19T16:47:04.132Z,1.70
2024-02-19T16:52:08.990Z,1.70
2024-02-19T16:57:22.292Z,1.60
2024-02-19T17:02:28.772Z,1.60
2024-02-19T17:07:33.402Z,1.40
2024-02-19T17:12:37.671Z,1.80
2024-02-19T17:17:42.052Z,1.50
2024-02-19T17:22:47.269Z,1.30
2024-02-19T17:27:51.561Z,1.30
2024-02-19T17:32:56.133Z,1.60
2024-02-19T17:38:00.164Z,2.00
2024-02-19T17:43:05.238Z,1.60
2024-02-19T17:48:13.876Z,1.50
2024-02-19T17:53:18.703Z,1.50
2024-02-19T17:58:22.833Z,1.60
2024-02-19T18:03:28.826Z,1.50
2024-02-19T18:08:33.718Z,1.50
2024-02-19T18:13:37.775Z,1.80
2024-02-19T18:18:43.526Z,1.70
2024-02-19T18:23:49.211Z,2.10
2024-02-19T18:28:56.732Z,2.10
2024-02-19T18:34:01.383Z,1.90
2024-02-19T18:39:07.183Z,5.10
2024-02-19T18:44:11.302Z,1.90
2024-02-19T18:49:16.826Z,2.60
2024-02-19T18:54:27.705Z,2.20
2024-02-19T18:59:43.548Z,2.30
2024-02-19T19:04:49.051Z,2.50
2024-02-19T19:09:53.573Z,2.30
2024-02-19T19:14:59.259Z,2.90
2024-02-19T19:20:09.759Z,2.60
2024-02-19T19:25:14.933Z,2.60
2024-02-19T19:30:19.104Z,2.80
2024-02-19T19:35:24.599Z,2.80
2024-02-19T19:40:28.722Z,3.00
2024-02-19T19:45:33.073Z,2.50
2024-02-19T19:50:38.384Z,2.50
2024-02-19T19:55:42.616Z,2.40
2024-02-19T20:00:47.529Z,2.00
2024-02-19T20:05:51.676Z,2.00
2024-02-19T20:10:59.418Z,2.00
2024-02-19T20:16:04.023Z,2.20
2024-02-19T20:21:10.963Z,1.90
2024-02-19T20:26:18.681Z,1.60
2024-02-19T20:31:22.802Z,1.90
2024-02-19T20:36:26.768Z,1.70
2024-02-19T20:41:34.166Z,2.60
2024-02-19T20:46:38.413Z,1.50
2024-02-19T20:51:47.137Z,1.60
2024-02-19T21:02:55.473Z,1.60
2024-02-19T21:08:00.878Z,1.30
2024-02-19T21:13:06.339Z,1.60
2024-02-19T21:18:12.904Z,1.60
2024-02-19T21:23:17.009Z,1.50
2024-02-19T21:28:21.375Z,1.50
2024-02-19T21:33:26.182Z,2.00
2024-02-19T21:38:30.298Z,2.30
2024-02-19T21:43:34.506Z,2.60
2024-02-19T21:48:41.475Z,2.80
2024-02-19T21:53:45.875Z,3.30
2024-02-19T21:58:51.468Z,2.60
2024-02-19T22:03:57.065Z,3.00
2024-02-19T22:09:02.008Z,2.50
2024-02-19T22:14:07.807Z,2.10
2024-02-19T22:19:18.171Z,2.00
2024-02-19T22:24:26.197Z,1.40
2024-02-19T22:29:33.313Z,2.10
2024-02-19T22:34:41.338Z,2.00
2024-02-19T22:39:48.851Z,2.30
2024-02-19T22:44:54.997Z,1.90
2024-02-19T22:50:02.366Z,1.70
2024-02-19T22:55:39.533Z,2.60
2024-02-19T23:00:54.053Z,2.30
2024-02-19T23:05:58.566Z,2.40
2024-02-19T23:11:03.094Z,2.50
2024-02-19T23:16:08.524Z,3.00
2024-02-19T23:21:16.761Z,3.10
2024-02-19T23:26:21.077Z,2.40
2024-02-19T23:31:27.165Z,3.20
2024-02-19T23:36:37.676Z,3.00
2024-02-19T23:41:41.819Z,3.60
2024-02-19T23:46:45.672Z,3.20
2024-02-19T23:51:50.169Z,4.30
2024-02-19T23:57:02.288Z,4.70
